Glencoe Municipal Airport


Codes: KGYL/
Name: Glencoe Municipal Airport
City: Glencoe
Country: United States
Elevation: 992 ft.

Photos at Glencoe Municipal Airport


   Photos courtesy of SpottingLog. You can add your own sightings and photos by signing up for a free trial today.



No photos found.

Weather at Glencoe Municipal Airport


Time (UTC)DescriptionTempratureWindCloud coverageVisibilityPressureHumidity
25-Jun-2024 15:00Few Clouds23°C4 mph, N13%10000m1005hPa76%
25-Jun-2024 18:00Scattered Clouds24°C4 mph, W42%10000m1007hPa69%
25-Jun-2024 21:00Broken Clouds27°C9 mph, W63%10000m1009hPa59%
26-Jun-2024 00:00Scattered Clouds25°C7 mph, NW40%10000m1009hPa75%
26-Jun-2024 03:00Scattered Clouds21°C9 mph, NW28%10000m1011hPa84%
26-Jun-2024 06:00Scattered Clouds17°C7 mph, N27%10000m1012hPa86%
26-Jun-2024 09:00Clear Sky15°C9 mph, NW0%10000m1013hPa86%
26-Jun-2024 12:00Scattered Clouds17°C13 mph, NW36%10000m1014hPa81%
26-Jun-2024 15:00Clear Sky19°C13 mph, N0%10000m1015hPa77%
26-Jun-2024 18:00Few Clouds20°C11 mph, N12%10000m1016hPa71%
26-Jun-2024 21:00Scattered Clouds21°C11 mph, N29%10000m1016hPa70%
27-Jun-2024 00:00Scattered Clouds19°C7 mph, N45%10000m1015hPa78%
27-Jun-2024 03:00Few Clouds15°C4 mph, NW15%10000m1015hPa83%
27-Jun-2024 06:00Few Clouds14°C4 mph, NW12%10000m1016hPa88%
27-Jun-2024 09:00Clear Sky13°C4 mph, N2%10000m1015hPa92%
27-Jun-2024 12:00Scattered Clouds14°C2 mph, E25%10000m1015hPa91%
27-Jun-2024 15:00Overcast Clouds19°C7 mph, SE91%10000m1014hPa78%
27-Jun-2024 18:00Overcast Clouds21°C11 mph, S93%10000m1012hPa76%
27-Jun-2024 21:00Overcast Clouds20°C9 mph, S100%10000m1010hPa85%
28-Jun-2024 00:00Overcast Clouds19°C11 mph, S100%10000m1008hPa86%
28-Jun-2024 03:00Overcast Clouds17°C13 mph, S92%10000m1006hPa86%
28-Jun-2024 06:00Light Rain18°C16 mph, S96%10000m1004hPa83%
28-Jun-2024 09:00Light Rain18°C16 mph, S100%4697m1002hPa94%
28-Jun-2024 12:00Light Rain18°C16 mph, S100%10000m1000hPa95%
28-Jun-2024 15:00Light Rain18°C13 mph, S100%10000m1000hPa97%
28-Jun-2024 18:00Light Rain20°C9 mph, SW100%10000m999hPa97%
28-Jun-2024 21:00Light Rain25°C9 mph, W86%10000m999hPa82%
29-Jun-2024 00:00Light Rain24°C16 mph, NW72%10000m1001hPa84%
29-Jun-2024 03:00Clear Sky19°C7 mph, W5%10000m1004hPa92%
29-Jun-2024 06:00Clear Sky17°C9 mph, W2%10000m1006hPa87%
29-Jun-2024 09:00Few Clouds15°C13 mph, NW14%10000m1008hPa83%
29-Jun-2024 12:00Few Clouds12°C18 mph, NW11%10000m1012hPa86%
29-Jun-2024 15:00Broken Clouds12°C18 mph, NW83%10000m1017hPa85%
29-Jun-2024 18:00Overcast Clouds13°C16 mph, NW91%10000m1019hPa80%
29-Jun-2024 21:00Light Rain16°C13 mph, N97%10000m1020hPa74%
30-Jun-2024 00:00Light Rain15°C9 mph, N87%10000m1022hPa79%
30-Jun-2024 03:00Few Clouds11°C2 mph, NW15%10000m1024hPa86%
30-Jun-2024 06:00Clear Sky10°C4 mph, NW9%10000m1026hPa88%
30-Jun-2024 09:00Clear Sky9°C4 mph, NW0%10000m1027hPa90%
30-Jun-2024 12:00Clear Sky10°C2 mph, NW0%10000m1028hPa84%